Elm, New Jersey
Current Conditions -  °F | °C
As of 9:54 AM on Monday 24 Nov 2014 (Local Time) from KACY Reporting Station
Overcast Overcast  
Wind Chill: 62°   Ceiling: 400
Heat Index: 62°   Visibility: 8mi
Dew Point: 62°   Wind: 16mph
Humidity: 100%   Direction: 190°S
Pressure: 29.73"   Gusts: 24mph
Location:  39.637°N, 74.7602°W
Report Text: KACY 241454Z 19014G21KT 8SM OVC004 17/17 A2973 RMK AO2 SLP065 60000 T01670167 56006
Loading
Personal Weather Stations






























Interactive Weather Map New forecast layout! Learn more

10-Day Weather Forecast

Advertisements
Track Severe Weather on mobile